Terminal Aerodrome Forecast
Issued by NWS

Home | Current Version | Previous Version | Text Only | Print | Product List | Glossary On
Versions: 1 2 3 4 5 6 7 8 9 10 11 12 13 14 15 16 17 18 19 20 21 22
000
FTUS45 KBOU 262320
TAFBJC
TAF
KBJC 262320Z 2700/2724 08005KT P6SM FEW080
     FM270100 15005KT P6SM SCT080
     FM270300 VRB05KT P6SM SCT080
     FM271500 25007KT P6SM SCT120 BKN200
     FM271900 29014KT P6SM BKN120=

USA.gov is the U.S. government's official web portal to all federal, state and local government web resources and services.